Time;durP1;ratioP1;P1;durP2;ratioP2;P2;SDS_P1;SDS_P2;PMS_P1;PMS_P2;Temp;Humidity;BMP_temperature;BMP_pressure;BME280_temperature;BME280_humidity;BME280_pressure;Samples;Min_cycle;Max_cycle;Signal;HPM_P1;HPM_P2
2022/05/03 00:01:55;;;;;;;16.27;14.87;;;11.90;99.90;;;;;;4950786;28;20447;-69
2022/05/03 00:04:37;;;;;;;16.70;15.30;;;12.00;99.90;;;;;;4952975;28;20472;-69
2022/05/03 00:07:20;;;;;;;16.10;14.50;;;12.00;99.90;;;;;;4952144;28;20527;-70
2022/05/03 00:10:01;;;;;;;17.93;16.07;;;12.00;99.90;;;;;;4952464;28;20619;-69
2022/05/03 00:12:39;;;;;;;14.77;13.57;;;12.00;99.90;;;;;;4952080;28;20536;-69
2022/05/03 00:15:06;;;;;;;15.87;14.53;;;12.00;99.90;;;;;;4953508;28;20954;-69
2022/05/03 00:17:33;;;;;;;18.50;17.10;;;12.00;99.90;;;;;;4951748;28;20476;-69
2022/05/03 00:20:00;;;;;;;15.80;14.40;;;12.00;99.90;;;;;;4951913;28;20449;-69
2022/05/03 00:22:26;;;;;;;16.23;14.73;;;12.00;99.90;;;;;;4953663;28;20444;-70
2022/05/03 00:24:54;;;;;;;15.80;14.40;;;11.90;99.90;;;;;;4951866;28;20551;-69
2022/05/03 00:27:24;;;;;;;17.77;16.17;;;11.90;99.90;;;;;;4948621;28;20220;-70
2022/05/03 00:29:51;;;;;;;16.97;15.47;;;11.70;99.90;;;;;;4949746;28;20436;-69
2022/05/03 00:32:19;;;;;;;15.97;14.67;;;11.60;99.90;;;;;;4951217;28;20433;-70
2022/05/03 00:34:45;;;;;;;17.90;16.40;;;11.70;99.90;;;;;;4952770;28;20445;-69
2022/05/03 00:37:11;;;;;;;17.07;15.50;;;11.50;99.90;;;;;;4950645;28;20444;-69
2022/05/03 00:39:36;;;;;;;16.47;15.07;;;11.50;99.90;;;;;;4953040;28;20491;-69
2022/05/03 00:42:08;;;;;;;15.90;14.50;;;11.50;99.90;;;;;;4949255;28;20200;-70
2022/05/03 00:44:58;;;;;;;15.23;13.83;;;11.50;99.90;;;;;;4950974;28;20209;-70
2022/05/03 00:47:46;;;;;;;16.33;14.90;;;11.50;99.90;;;;;;4947604;28;20437;-69
2022/05/03 00:50:37;;;;;;;15.47;13.97;;;11.60;99.90;;;;;;4952956;28;20782;-69
2022/05/03 00:53:30;;;;;;;14.30;13.13;;;11.60;99.90;;;;;;4949559;28;20853;-69
2022/05/03 00:57:06;;;;;;;15.90;14.57;;;11.60;99.90;;;;;;4952057;28;20440;-69
2022/05/03 00:59:43;;;;;;;15.93;14.57;;;11.50;99.90;;;;;;4847132;29;20459;-69
2022/05/03 01:02:13;;;;;;;15.93;14.53;;;11.30;99.90;;;;;;4872683;29;20448;-69
2022/05/03 01:05:10;;;;;;;15.97;14.57;;;11.30;99.90;;;;;;4932553;28;20504;-69
2022/05/03 01:07:47;;;;;;;16.17;14.87;;;11.20;99.90;;;;;;4949581;28;20543;-69
2022/05/03 01:10:33;;;;;;;16.70;15.00;;;11.30;99.90;;;;;;4951843;28;20440;-69
2022/05/03 01:13:03;;;;;;;16.00;14.53;;;11.30;99.90;;;;;;4950333;28;20436;-69
2022/05/03 01:15:35;;;;;;;17.53;15.97;;;11.10;99.90;;;;;;4951818;28;20449;-69
2022/05/03 01:18:14;;;;;;;16.37;14.97;;;11.10;99.90;;;;;;4951671;28;20535;-69
2022/05/03 01:21:16;;;;;;;15.63;14.17;;;11.00;99.90;;;;;;4950498;28;20451;-68
2022/05/03 01:24:13;;;;;;;17.03;15.47;;;11.00;99.90;;;;;;4950680;28;20442;-69
2022/05/03 01:26:52;;;;;;;17.30;15.70;;;11.00;99.90;;;;;;4950009;28;20457;-70
2022/05/03 01:29:32;;;;;;;17.83;16.13;;;10.90;99.90;;;;;;4951080;28;20471;-69
2022/05/03 01:32:08;;;;;;;15.57;14.17;;;11.00;99.90;;;;;;4950791;28;20927;-69
2022/05/03 01:34:35;;;;;;;17.80;16.20;;;11.10;99.90;;;;;;4953704;28;20502;-70
2022/05/03 01:37:04;;;;;;;16.43;15.03;;;11.00;99.90;;;;;;4950413;28;20470;-69
2022/05/03 01:39:48;;;;;;;17.43;15.80;;;11.00;99.90;;;;;;4952416;28;20456;-70
2022/05/03 01:42:50;;;;;;;18.30;16.80;;;10.90;99.90;;;;;;4951122;28;20444;-69
2022/05/03 01:45:35;;;;;;;18.30;16.57;;;10.90;99.90;;;;;;4951044;28;20460;-69
2022/05/03 01:50:18;;;;;;;17.87;16.17;;;10.80;99.90;;;;;;4952502;28;20580;-69
2022/05/03 01:51:25;;;;;;;16.90;15.40;;;10.70;99.90;;;;;;4950762;28;20459;-69
2022/05/03 01:54:07;;;;;;;17.43;15.83;;;10.70;99.90;;;;;;4951745;28;20829;-69
2022/05/03 01:56:46;;;;;;;18.10;16.20;;;10.70;99.90;;;;;;4951825;28;20440;-69
2022/05/03 01:59:30;;;;;;;17.40;15.87;;;10.70;99.90;;;;;;4950832;28;20468;-69
2022/05/03 02:02:00;;;;;;;17.87;16.20;;;10.70;99.90;;;;;;4951349;28;20973;-69
2022/05/03 02:04:50;;;;;;;18.47;16.63;;;10.80;99.90;;;;;;4953287;28;20526;-69
2022/05/03 02:07:52;;;;;;;19.83;17.83;;;10.60;99.90;;;;;;4956009;28;20537;-69
2022/05/03 02:10:24;;;;;;;18.27;16.57;;;10.60;99.90;;;;;;4955418;28;20444;-69
2022/05/03 02:12:54;;;;;;;19.23;17.40;;;10.70;99.90;;;;;;4954261;28;21151;-69
2022/05/03 02:15:48;;;;;;;18.97;17.17;;;10.60;99.90;;;;;;4950638;28;20527;-68
2022/05/03 02:18:33;;;;;;;18.33;16.70;;;10.60;99.90;;;;;;4954323;28;20468;-69
2022/05/03 02:21:13;;;;;;;18.70;17.10;;;10.60;99.90;;;;;;4952680;28;20444;-69
2022/05/03 02:24:11;;;;;;;19.93;18.23;;;10.60;99.90;;;;;;4955741;28;20812;-69
2022/05/03 02:26:47;;;;;;;20.17;18.37;;;10.50;99.90;;;;;;4954706;28;21063;-69
2022/05/03 02:29:21;;;;;;;19.37;17.47;;;10.50;99.90;;;;;;4957909;28;20480;-72
2022/05/03 02:32:04;;;;;;;19.77;17.70;;;10.50;99.90;;;;;;4957486;28;20448;-71
2022/05/03 02:34:40;;;;;;;19.33;17.33;;;10.40;99.90;;;;;;4958699;28;20436;-71
2022/05/03 02:37:17;;;;;;;18.07;16.37;;;10.40;99.90;;;;;;4957199;28;20448;-72
2022/05/03 02:40:02;;;;;;;16.43;15.03;;;10.40;99.90;;;;;;4957531;28;20936;-70
2022/05/03 02:42:28;;;;;;;19.40;17.67;;;10.30;99.90;;;;;;4953225;28;20448;-72
2022/05/03 02:44:59;;;;;;;18.43;16.83;;;10.30;99.90;;;;;;4959009;28;20514;-70
2022/05/03 02:47:32;;;;;;;18.07;16.53;;;10.20;99.90;;;;;;4957058;28;20448;-72
2022/05/03 02:50:03;;;;;;;18.63;16.93;;;10.10;99.90;;;;;;4956333;28;20857;-72
2022/05/03 02:52:38;;;;;;;20.80;18.67;;;10.10;99.90;;;;;;4960024;28;20448;-71
2022/05/03 02:55:23;;;;;;;17.87;16.20;;;10.20;99.90;;;;;;4962033;28;20538;-72
2022/05/03 02:57:58;;;;;;;20.63;18.73;;;10.20;99.90;;;;;;4965254;28;20488;-72
2022/05/03 03:03:43;;;;;;;17.17;15.67;;;10.20;99.90;;;;;;4955534;28;20525;-71
2022/05/03 03:06:21;;;;;;;18.23;16.63;;;10.10;99.90;;;;;;4953483;28;20468;-73
2022/05/03 03:08:49;;;;;;;18.70;16.87;;;10.00;99.90;;;;;;4954093;28;20452;-72
2022/05/03 03:11:30;;;;;;;17.90;16.23;;;10.00;99.90;;;;;;4958052;28;20449;-71
2022/05/03 03:14:14;;;;;;;19.20;17.30;;;10.00;99.90;;;;;;4959505;28;20450;-71
2022/05/03 03:16:49;;;;;;;22.23;19.67;;;9.90;99.90;;;;;;4953608;28;20476;-72
2022/05/03 03:19:51;;;;;;;20.97;18.97;;;9.80;99.90;;;;;;4952237;28;20475;-71
2022/05/03 03:22:20;;;;;;;22.23;20.13;;;9.80;99.90;;;;;;4949409;28;20530;-72
2022/05/03 03:24:47;;;;;;;21.60;19.60;;;9.80;99.90;;;;;;4954075;28;20985;-72
2022/05/03 03:27:14;;;;;;;21.27;19.27;;;9.90;99.90;;;;;;4953267;28;20443;-71
2022/05/03 03:29:42;;;;;;;22.50;20.20;;;9.80;99.90;;;;;;4953415;28;20445;-72
2022/05/03 03:32:09;;;;;;;23.63;21.30;;;9.90;99.90;;;;;;4954741;28;20865;-72
2022/05/03 03:34:39;;;;;;;22.67;20.47;;;9.90;99.90;;;;;;4952540;28;20441;-72
2022/05/03 03:37:07;;;;;;;26.83;23.30;;;9.90;99.90;;;;;;4955012;28;20447;-72
2022/05/03 03:39:33;;;;;;;25.50;22.03;;;9.90;99.90;;;;;;4952522;28;20451;-72
2022/05/03 03:42:02;;;;;;;21.70;19.70;;;9.90;99.90;;;;;;4954512;28;20445;-72
2022/05/03 03:44:30;;;;;;;24.50;21.37;;;9.80;99.90;;;;;;4954147;28;20449;-72
2022/05/03 03:46:56;;;;;;;25.33;22.70;;;9.80;99.90;;;;;;4953377;28;20938;-70
2022/05/03 03:49:22;;;;;;;22.30;20.00;;;9.80;99.90;;;;;;4934703;28;20464;-72
2022/05/03 03:51:49;;;;;;;21.97;19.73;;;9.70;99.90;;;;;;4952879;28;20228;-72
2022/05/03 03:54:15;;;;;;;21.93;19.83;;;9.70;99.90;;;;;;4953255;28;20331;-72
2022/05/03 03:56:41;;;;;;;17.93;16.20;;;9.70;99.90;;;;;;4953494;28;20524;-72
2022/05/03 03:59:07;;;;;;;19.50;17.50;;;9.60;99.90;;;;;;4953639;28;20209;-72
2022/05/03 04:01:32;;;;;;;26.53;22.40;;;9.40;99.90;;;;;;4953621;28;20443;-71
2022/05/03 04:03:59;;;;;;;22.50;20.27;;;9.40;99.90;;;;;;4958320;28;20448;-72
2022/05/03 04:06:25;;;;;;;24.87;22.37;;;9.40;99.90;;;;;;4960802;28;20204;-70
2022/05/03 04:08:51;;;;;;;22.03;19.80;;;9.40;99.90;;;;;;4958578;28;20459;-72
2022/05/03 04:11:18;;;;;;;25.37;22.77;;;9.50;99.90;;;;;;4959457;28;20519;-69
2022/05/03 04:13:44;;;;;;;28.53;25.70;;;9.60;99.90;;;;;;4953354;28;20440;-71
2022/05/03 04:16:10;;;;;;;25.27;22.77;;;9.70;99.90;;;;;;4954431;29;20424;-71
2022/05/03 04:18:45;;;;;;;22.83;20.50;;;9.80;99.90;;;;;;4945179;28;20463;-71
2022/05/03 04:21:18;;;;;;;24.77;22.47;;;9.80;99.90;;;;;;4949940;29;20184;-71
2022/05/03 04:23:48;;;;;;;22.37;20.30;;;9.80;99.90;;;;;;4951691;28;20447;-71
2022/05/03 04:26:14;;;;;;;18.80;17.13;;;9.90;99.90;;;;;;4952829;28;20853;-71
2022/05/03 04:28:40;;;;;;;25.60;23.27;;;9.90;99.90;;;;;;4952179;28;20472;-71
2022/05/03 04:31:06;;;;;;;22.53;20.17;;;9.80;99.90;;;;;;4951470;28;20471;-71
2022/05/03 04:33:32;;;;;;;23.50;21.17;;;9.90;99.90;;;;;;4952435;28;20511;-71
2022/05/03 04:35:58;;;;;;;22.37;20.23;;;9.90;99.90;;;;;;4952239;28;20444;-71
2022/05/03 04:38:24;;;;;;;22.17;20.10;;;10.10;99.90;;;;;;4953308;28;20471;-71
2022/05/03 04:40:50;;;;;;;21.00;19.17;;;10.20;99.90;;;;;;4951548;28;20181;-71
2022/05/03 04:43:16;;;;;;;22.23;20.03;;;10.30;99.90;;;;;;4953437;28;20184;-71
2022/05/03 04:45:42;;;;;;;26.00;23.37;;;10.40;99.90;;;;;;4951585;28;20475;-71
2022/05/03 04:48:08;;;;;;;24.37;21.80;;;10.50;99.90;;;;;;4952089;28;20464;-71
2022/05/03 04:50:34;;;;;;;22.77;20.50;;;10.60;99.90;;;;;;4950705;28;20499;-71
2022/05/03 04:53:00;;;;;;;21.73;19.77;;;10.60;99.90;;;;;;4953171;28;20444;-71
2022/05/03 04:55:27;;;;;;;22.70;20.57;;;10.70;99.90;;;;;;4951887;28;20934;-71
2022/05/03 04:57:55;;;;;;;25.67;20.53;;;10.80;99.90;;;;;;4952926;28;20244;-71
2022/05/03 05:00:20;;;;;;;22.50;20.20;;;10.90;99.90;;;;;;4952806;28;20749;-71
2022/05/03 05:02:46;;;;;;;21.97;19.43;;;11.10;99.90;;;;;;4950868;28;20547;-71
2022/05/03 05:05:11;;;;;;;20.50;18.60;;;11.20;99.90;;;;;;4953075;28;20283;-71
2022/05/03 05:07:37;;;;;;;22.20;20.20;;;11.40;99.90;;;;;;4953037;28;20568;-71
2022/05/03 05:12:46;;;;;;;19.30;17.43;;;11.70;99.90;;;;;;4952329;28;20273;-71
2022/05/03 05:15:12;;;;;;;22.47;20.27;;;11.80;99.90;;;;;;4952605;28;20526;-71
2022/05/03 05:17:37;;;;;;;21.30;19.10;;;11.90;99.90;;;;;;4951925;28;20664;-71
2022/05/03 05:20:03;;;;;;;22.17;20.03;;;12.00;99.90;;;;;;4951020;28;20185;-71
2022/05/03 05:22:29;;;;;;;20.93;19.03;;;12.10;99.90;;;;;;4952209;28;20180;-71
2022/05/03 05:24:54;;;;;;;21.13;19.30;;;12.30;99.90;;;;;;4952559;28;20523;-71
2022/05/03 05:27:20;;;;;;;21.43;19.20;;;12.40;99.90;;;;;;4953885;28;20212;-71
2022/05/03 05:29:45;;;;;;;20.70;18.60;;;12.50;99.90;;;;;;4951463;28;20228;-71
2022/05/03 05:32:11;;;;;;;21.43;19.50;;;12.70;99.90;;;;;;4951405;28;20639;-71
2022/05/03 05:34:36;;;;;;;22.10;20.20;;;12.80;99.90;;;;;;4952810;28;20271;-71
2022/05/03 05:37:02;;;;;;;21.33;19.23;;;13.00;99.90;;;;;;4950063;28;20734;-71
2022/05/03 05:39:28;;;;;;;22.40;20.13;;;13.20;99.90;;;;;;4954972;28;20474;-71
2022/05/03 05:41:59;;;;;;;20.87;18.77;;;13.30;99.90;;;;;;4955344;28;21044;-72
2022/05/03 05:44:25;;;;;;;20.77;18.90;;;13.60;99.90;;;;;;4937543;28;20212;-71
2022/05/03 05:46:52;;;;;;;19.93;18.17;;;13.90;99.90;;;;;;4953328;28;20472;-71
2022/05/03 05:49:18;;;;;;;27.33;19.97;;;14.20;99.90;;;;;;4950538;28;20950;-72
2022/05/03 05:51:45;;;;;;;20.50;18.40;;;14.60;99.90;;;;;;4955779;28;20490;-72
2022/05/03 05:54:10;;;;;;;19.17;17.37;;;14.80;99.90;;;;;;4955454;28;20510;-72
2022/05/03 05:56:36;;;;;;;19.57;17.67;;;15.10;99.90;;;;;;4955592;28;20535;-72
2022/05/03 05:59:02;;;;;;;18.50;16.93;;;15.50;99.90;;;;;;4955880;28;20200;-72
2022/05/03 06:01:38;;;;;;;18.97;17.37;;;15.80;99.90;;;;;;4956045;28;20259;-72
2022/05/03 06:04:04;;;;;;;18.63;16.73;;;16.00;99.90;;;;;;4955254;28;20296;-72
2022/05/03 06:06:32;;;;;;;17.93;16.53;;;16.20;99.90;;;;;;4954575;28;20526;-71
2022/05/03 06:08:58;;;;;;;19.87;18.07;;;16.40;99.90;;;;;;4954161;28;20486;-71
2022/05/03 06:11:24;;;;;;;19.03;17.20;;;16.50;99.90;;;;;;4955559;28;20563;-72
2022/05/03 06:13:49;;;;;;;17.67;16.03;;;16.60;99.90;;;;;;4955579;28;20527;-71
2022/05/03 06:16:15;;;;;;;19.27;17.30;;;16.50;99.90;;;;;;4957367;28;20185;-72
2022/05/03 06:18:41;;;;;;;19.23;17.43;;;16.70;99.90;;;;;;4954249;28;20209;-72
2022/05/03 06:21:10;;;;;;;19.03;17.43;;;16.70;99.90;;;;;;4956719;28;20191;-71
2022/05/03 06:23:36;;;;;;;20.87;19.03;;;16.90;99.90;;;;;;4959419;28;20181;-71
2022/05/03 06:26:05;;;;;;;20.33;18.63;;;16.80;99.90;;;;;;4957453;28;20500;-74
2022/05/03 06:28:32;;;;;;;18.40;16.90;;;16.40;99.90;;;;;;4954563;28;20479;-73
2022/05/03 06:30:57;;;;;;;19.33;17.80;;;16.60;99.90;;;;;;4956529;28;20527;-73
2022/05/03 06:33:23;;;;;;;18.80;17.40;;;16.70;99.90;;;;;;4955812;28;20531;-71
2022/05/03 06:35:48;;;;;;;18.30;15.93;;;16.90;99.90;;;;;;4956791;28;20188;-69
2022/05/03 06:38:14;;;;;;;16.13;14.77;;;16.70;99.90;;;;;;4954543;28;20636;-73
2022/05/03 06:40:39;;;;;;;18.53;16.93;;;16.60;99.90;;;;;;4955506;28;20193;-71
2022/05/03 06:43:06;;;;;;;17.10;15.80;;;16.60;99.90;;;;;;4955985;28;20180;-70
2022/05/03 06:45:31;;;;;;;19.43;17.70;;;16.70;99.90;;;;;;4955329;28;21396;-70
2022/05/03 06:47:57;;;;;;;14.60;13.50;;;16.50;99.90;;;;;;4950500;28;20464;-72
2022/05/03 06:50:22;;;;;;;17.73;16.20;;;17.00;99.90;;;;;;4921547;28;20193;-71
2022/05/03 06:52:48;;;;;;;17.30;15.97;;;17.00;99.90;;;;;;4943138;28;20624;-71
2022/05/03 06:55:14;;;;;;;16.03;14.73;;;17.00;99.90;;;;;;4953000;28;20201;-72
2022/05/03 06:57:39;;;;;;;18.00;16.43;;;17.00;99.90;;;;;;4952261;28;20201;-71
2022/05/03 07:00:06;;;;;;;17.30;16.00;;;17.20;99.90;;;;;;4952476;28;20201;-71
2022/05/03 07:02:33;;;;;;;17.10;15.70;;;17.50;99.90;;;;;;4953100;28;20189;-72
2022/05/03 07:05:00;;;;;;;17.80;16.03;;;17.70;99.90;;;;;;4952871;28;20840;-69
2022/05/03 07:07:26;;;;;;;17.57;16.20;;;18.00;99.90;;;;;;4954315;28;20441;-69
2022/05/03 07:09:52;;;;;;;17.40;16.00;;;18.20;99.90;;;;;;4950452;28;20472;-69
2022/05/03 07:12:18;;;;;;;18.17;16.47;;;18.20;99.90;;;;;;4952055;28;20460;-70
2022/05/03 07:14:43;;;;;;;17.10;15.53;;;18.40;99.90;;;;;;4963530;28;20224;-70
2022/05/03 07:17:09;;;;;;;17.73;16.00;;;18.30;99.90;;;;;;4952278;28;20185;-70
2022/05/03 07:25:03;;;;;;;17.33;15.77;;;19.30;99.90;;;;;;4952488;28;20466;-70
2022/05/03 07:27:28;;;;;;;17.00;15.57;;;19.60;99.90;;;;;;4949215;28;20551;-70
2022/05/03 07:29:54;;;;;;;15.17;13.80;;;19.70;99.90;;;;;;4947840;28;20444;-70
2022/05/03 07:32:20;;;;;;;16.63;15.33;;;20.30;99.90;;;;;;4949253;28;20193;-70
2022/05/03 07:34:46;;;;;;;16.30;15.00;;;20.00;99.90;;;;;;4951891;28;20189;-70
2022/05/03 07:37:12;;;;;;;16.00;14.67;;;19.70;99.90;;;;;;4949520;28;20177;-71
2022/05/03 07:39:38;;;;;;;14.60;13.50;;;19.90;99.90;;;;;;4947934;28;20816;-71
2022/05/03 07:42:05;;;;;;;16.33;15.03;;;20.60;99.90;;;;;;4949656;28;20276;-71
2022/05/03 07:44:30;;;;;;;15.03;13.73;;;21.10;99.90;;;;;;4948922;28;20441;-71
2022/05/03 07:46:57;;;;;;;14.50;13.07;;;21.40;99.90;;;;;;4949840;28;20471;-71
2022/05/03 07:49:22;;;;;;;13.27;12.27;;;22.00;99.90;;;;;;4949201;28;20204;-71
2022/05/03 07:51:48;;;;;;;13.40;12.30;;;22.40;99.90;;;;;;4949035;28;20511;-71
2022/05/03 07:54:14;;;;;;;14.10;13.00;;;22.70;99.60;;;;;;4945882;28;20583;-71
2022/05/03 07:56:40;;;;;;;17.20;15.90;;;22.70;98.80;;;;;;4953918;28;20186;-71
2022/05/03 07:59:08;;;;;;;15.00;13.80;;;22.70;98.70;;;;;;4935163;29;20840;-71
2022/05/03 08:01:34;;;;;;;15.40;14.10;;;22.10;99.10;;;;;;4933153;29;20181;-71
2022/05/03 08:03:59;;;;;;;15.37;13.97;;;21.90;99.60;;;;;;4947367;28;20979;-71
2022/05/03 08:06:27;;;;;;;13.43;12.33;;;21.80;99.60;;;;;;4950493;28;20209;-71
2022/05/03 08:08:52;;;;;;;14.30;13.20;;;21.60;99.60;;;;;;4947849;28;20666;-71
2022/05/03 08:11:18;;;;;;;14.80;13.27;;;21.80;99.50;;;;;;4949087;28;20493;-71
2022/05/03 08:13:45;;;;;;;14.03;12.83;;;22.10;99.10;;;;;;4949064;28;20909;-71
2022/05/03 08:16:20;;;;;;;14.80;13.40;;;22.30;98.50;;;;;;4952524;28;20212;-71
2022/05/03 08:18:47;;;;;;;15.63;14.03;;;22.30;98.00;;;;;;4948620;28;20463;-71
2022/05/03 08:21:13;;;;;;;14.77;13.47;;;22.20;98.10;;;;;;4957740;28;20454;-71
2022/05/03 08:23:39;;;;;;;13.20;12.20;;;22.10;98.10;;;;;;4949725;28;20440;-71
2022/05/03 08:26:05;;;;;;;13.03;11.93;;;22.10;97.90;;;;;;4947475;28;20475;-74
2022/05/03 08:28:31;;;;;;;13.17;12.10;;;22.30;97.70;;;;;;4949345;28;20956;-70
2022/05/03 08:30:57;;;;;;;13.00;11.80;;;22.30;97.50;;;;;;4948233;28;20610;-70
2022/05/03 08:33:22;;;;;;;10.90;10.20;;;22.60;97.20;;;;;;4948480;28;20436;-72
2022/05/03 08:35:48;;;;;;;10.20;9.40;;;22.70;96.20;;;;;;4948609;28;20986;-70
2022/05/03 08:43:44;;;;;;;5.77;5.30;;;23.50;91.40;;;;;;4947554;28;20459;-75
2022/05/03 08:46:11;;;;;;;7.10;6.60;;;23.50;89.30;;;;;;4948579;28;20483;-71
2022/05/03 08:48:40;;;;;;;7.13;6.53;;;23.80;88.90;;;;;;4931657;29;20208;-72
2022/05/03 08:51:10;;;;;;;7.10;6.40;;;24.10;88.60;;;;;;4949423;28;21094;-72
2022/05/03 08:53:36;;;;;;;7.70;7.00;;;24.20;85.20;;;;;;4932943;28;20436;-73
2022/05/03 08:56:02;;;;;;;6.80;6.23;;;24.20;85.20;;;;;;4949814;28;20471;-70
2022/05/03 08:58:28;;;;;;;8.73;6.10;;;24.10;84.50;;;;;;4955386;28;20555;-69
2022/05/03 09:00:53;;;;;;;7.70;7.00;;;24.00;83.90;;;;;;4950173;28;20207;-70
2022/05/03 09:03:20;;;;;;;6.67;6.27;;;24.10;83.40;;;;;;4949617;28;20456;-70
2022/05/03 09:05:46;;;;;;;6.47;6.07;;;24.20;83.50;;;;;;4949510;28;20240;-73
2022/05/03 09:08:11;;;;;;;6.20;5.80;;;24.30;80.60;;;;;;4949458;28;20492;-73
2022/05/03 09:10:38;;;;;;;5.63;5.07;;;24.60;79.20;;;;;;4947959;28;20433;-71
2022/05/03 09:13:18;;;;;;;4.60;4.30;;;24.70;78.00;;;;;;4948062;28;20191;-72
2022/05/03 09:15:45;;;;;;;6.33;5.50;;;25.00;76.30;;;;;;4949117;28;21173;-73
2022/05/03 09:18:21;;;;;;;7.43;6.00;;;25.20;75.60;;;;;;4948062;28;20464;-69
2022/05/03 09:23:49;;;;;;;5.93;5.53;;;25.40;73.80;;;;;;4948451;28;20470;-74
2022/05/03 09:26:28;;;;;;;6.20;5.80;;;25.90;71.40;;;;;;4926956;29;21017;-71
2022/05/03 09:28:58;;;;;;;5.30;4.90;;;26.50;69.90;;;;;;4947876;28;20609;-70
2022/05/03 09:31:30;;;;;;;5.73;5.23;;;27.20;68.00;;;;;;4949672;28;20479;-71
2022/05/03 09:33:57;;;;;;;6.50;5.67;;;27.50;65.50;;;;;;4950626;28;20783;-70
2022/05/03 09:36:23;;;;;;;5.93;5.43;;;27.60;63.80;;;;;;4951561;28;20444;-70
2022/05/03 09:38:51;;;;;;;6.77;6.20;;;27.70;63.90;;;;;;4948480;28;20467;-70
2022/05/03 09:41:17;;;;;;;6.37;5.97;;;28.00;61.20;;;;;;4952613;28;20212;-70
2022/05/03 09:44:06;;;;;;;6.13;5.43;;;27.40;60.50;;;;;;4952154;28;20444;-71
2022/05/03 09:46:53;;;;;;;5.57;5.17;;;27.60;60.50;;;;;;4950457;28;20611;-70
2022/05/03 09:49:20;;;;;;;7.43;6.83;;;28.20;58.50;;;;;;4949780;28;20856;-70
2022/05/03 09:51:48;;;;;;;7.17;6.70;;;29.00;58.30;;;;;;4949489;28;20498;-70
2022/05/03 09:54:14;;;;;;;5.67;5.37;;;29.40;55.60;;;;;;4950424;28;20440;-70
2022/05/03 09:56:42;;;;;;;5.23;4.83;;;29.60;54.90;;;;;;4954098;28;20441;-68
2022/05/03 09:59:09;;;;;;;5.33;4.90;;;30.00;53.10;;;;;;4947966;28;20966;-69
2022/05/03 10:01:35;;;;;;;5.00;4.60;;;30.30;51.60;;;;;;4948817;28;20452;-69
2022/05/03 10:04:05;;;;;;;5.43;5.03;;;30.90;51.30;;;;;;4950954;28;20451;-67
2022/05/03 10:06:32;;;;;;;5.77;4.93;;;31.30;49.20;;;;;;4956101;28;21040;-68
2022/05/03 10:08:58;;;;;;;5.87;5.37;;;31.60;47.20;;;;;;4952040;28;20556;-74
2022/05/03 10:11:26;;;;;;;5.37;4.97;;;32.60;46.80;;;;;;4951997;28;20441;-64
2022/05/03 10:13:53;;;;;;;4.83;4.53;;;33.50;45.00;;;;;;4952375;28;20535;-64
2022/05/03 10:21:56;;;;;;;5.93;5.50;;;35.30;40.00;;;;;;4959460;28;20491;-65
2022/05/03 10:24:22;;;;;;;8.43;5.60;;;34.30;39.90;;;;;;4942251;29;20527;-64
2022/05/03 10:27:05;;;;;;;5.43;5.03;;;34.20;39.80;;;;;;4957116;28;20549;-64
2022/05/03 10:29:37;;;;;;;5.73;5.43;;;34.20;38.80;;;;;;4953906;28;20526;-65
2022/05/03 10:32:06;;;;;;;6.50;5.90;;;34.10;39.10;;;;;;4950715;28;20448;-65
2022/05/03 10:34:53;;;;;;;6.30;5.80;;;34.30;39.50;;;;;;4956881;28;20495;-65
2022/05/03 10:37:34;;;;;;;6.00;5.70;;;34.50;39.90;;;;;;4951748;28;20499;-64
2022/05/03 10:40:07;;;;;;;6.03;5.63;;;34.70;39.20;;;;;;4951359;28;21115;-65
2022/05/03 10:42:33;;;;;;;4.90;4.60;;;35.10;38.70;;;;;;4954471;28;20432;-65
2022/05/03 10:45:06;;;;;;;5.70;5.30;;;36.70;37.90;;;;;;4956191;28;20475;-66
2022/05/03 10:47:54;;;;;;;5.93;5.43;;;37.10;36.00;;;;;;4954413;28;20675;-64
2022/05/03 10:50:26;;;;;;;5.87;5.40;;;36.90;35.50;;;;;;4950096;28;20783;-64
2022/05/03 10:53:01;;;;;;;6.30;5.20;;;37.70;34.90;;;;;;4940186;29;20847;-65
2022/05/03 10:55:29;;;;;;;6.87;5.50;;;37.70;34.50;;;;;;4955984;28;20475;-65
2022/05/03 10:58:17;;;;;;;6.33;5.93;;;38.30;34.30;;;;;;4956247;28;20499;-63
2022/05/03 11:01:20;;;;;;;5.93;5.63;;;37.60;33.60;;;;;;4955795;28;20945;-64
2022/05/03 11:03:48;;;;;;;6.30;5.90;;;36.80;34.50;;;;;;4955387;28;20861;-64
2022/05/03 11:06:22;;;;;;;5.23;4.93;;;36.60;34.90;;;;;;4952578;28;20469;-66
2022/05/03 11:11:43;;;;;;;5.87;5.53;;;34.20;36.70;;;;;;4954326;28;20443;-66
2022/05/03 11:14:15;;;;;;;19.17;17.60;;;33.80;36.50;;;;;;4953717;28;20480;-66
2022/05/03 11:16:45;;;;;;;6.50;6.10;;;34.40;36.00;;;;;;4953842;28;21587;-67
2022/05/03 11:19:16;;;;;;;5.97;5.53;;;34.70;36.00;;;;;;4953724;28;20460;-66
2022/05/03 11:21:42;;;;;;;6.60;6.07;;;36.10;35.00;;;;;;4943176;28;20448;-69
2022/05/03 11:24:30;;;;;;;5.53;5.13;;;36.60;34.30;;;;;;4948803;28;20437;-67
2022/05/03 11:27:01;;;;;;;5.93;5.63;;;37.50;32.90;;;;;;4950225;28;20464;-68
2022/05/03 11:29:35;;;;;;;6.40;5.93;;;38.10;31.70;;;;;;4949975;28;20479;-67
2022/05/03 11:32:02;;;;;;;5.40;5.00;;;38.80;31.20;;;;;;4948642;28;20432;-66
2022/05/03 11:34:28;;;;;;;5.60;5.20;;;36.90;32.50;;;;;;4949998;28;20518;-66
2022/05/03 11:36:54;;;;;;;6.63;6.03;;;38.40;32.70;;;;;;4947263;28;20446;-67
2022/05/03 11:39:21;;;;;;;6.73;5.17;;;38.80;31.60;;;;;;4949145;28;20480;-66
2022/05/03 11:41:47;;;;;;;5.37;5.07;;;39.20;32.10;;;;;;4950158;28;20452;-66
2022/05/03 11:44:14;;;;;;;5.77;5.47;;;38.40;32.20;;;;;;4950399;28;20443;-68
2022/05/03 11:46:42;;;;;;;5.57;5.17;;;39.30;31.70;;;;;;4949510;28;20452;-67
2022/05/03 11:49:10;;;;;;;5.63;5.33;;;40.70;30.80;;;;;;4949669;28;20551;-66
2022/05/03 11:57:22;;;;;;;5.33;4.93;;;40.70;30.00;;;;;;4950228;28;20436;-66
2022/05/03 11:59:49;;;;;;;5.43;5.03;;;36.40;30.00;;;;;;4952030;28;20497;-66
2022/05/03 12:02:19;;;;;;;5.70;5.30;;;37.30;30.70;;;;;;4951019;28;20444;-68
2022/05/03 12:05:07;;;;;;;5.40;4.90;;;38.90;30.00;;;;;;4950598;28;21029;-66
2022/05/03 12:07:48;;;;;;;5.40;5.00;;;40.10;29.60;;;;;;4950000;28;21004;-66
2022/05/03 12:10:27;;;;;;;5.30;4.90;;;;;;;;;;4949344;28;20977;-66
2022/05/03 12:13:14;;;;;;;5.10;4.80;;;42.50;27.70;;;;;;4952113;28;20428;-67
2022/05/03 12:15:49;;;;;;;5.03;4.70;;;40.70;28.30;;;;;;4949986;28;20468;-68
2022/05/03 12:18:20;;;;;;;4.90;4.60;;;39.20;28.30;;;;;;4951364;28;20452;-67
2022/05/03 12:20:54;;;;;;;5.00;4.70;;;40.00;29.20;;;;;;4953765;28;20451;-66
2022/05/03 12:23:22;;;;;;;5.07;4.70;;;38.70;28.60;;;;;;4954172;28;20436;-67
2022/05/03 12:25:50;;;;;;;5.87;5.50;;;37.10;30.00;;;;;;4951699;28;20444;-66
2022/05/03 12:28:17;;;;;;;6.00;5.50;;;37.90;30.00;;;;;;4951569;28;20483;-66
2022/05/03 12:30:53;;;;;;;7.67;7.17;;;38.80;30.00;;;;;;4950333;28;20815;-66
2022/05/03 12:33:19;;;;;;;6.80;5.57;;;38.20;30.40;;;;;;4951759;28;20446;-66
2022/05/03 12:35:47;;;;;;;6.20;5.80;;;35.80;31.90;;;;;;4950916;28;20847;-67
2022/05/03 12:38:18;;;;;;;6.47;6.07;;;33.50;33.10;;;;;;4953734;28;20205;-69
2022/05/03 12:40:47;;;;;;;7.43;6.93;;;31.90;34.70;;;;;;4950467;28;20447;-66
2022/05/03 12:43:17;;;;;;;6.73;6.23;;;30.30;37.80;;;;;;4951079;28;20444;-66
2022/05/03 12:45:55;;;;;;;7.47;6.97;;;28.70;39.80;;;;;;4953256;28;20436;-67
2022/05/03 12:48:21;;;;;;;7.53;6.83;;;28.20;40.60;;;;;;4951826;28;20456;-66
2022/05/03 12:50:47;;;;;;;6.03;5.73;;;27.60;40.80;;;;;;4936148;28;20451;-68
2022/05/03 12:53:13;;;;;;;6.20;5.70;;;26.70;41.90;;;;;;4953100;28;20203;-68
2022/05/03 12:55:39;;;;;;;5.67;5.27;;;24.10;47.10;;;;;;4951556;28;20228;-68
2022/05/03 12:58:22;;;;;;;5.80;4.03;;;22.10;49.80;;;;;;4950656;28;20523;-70
2022/05/03 13:00:57;;;;;;;5.27;4.10;;;20.90;50.80;;;;;;4950521;28;20199;-69
2022/05/03 13:03:23;;;;;;;4.70;4.03;;;20.00;51.70;;;;;;4951560;28;20526;-69
2022/05/03 13:05:51;;;;;;;9.37;4.77;;;19.60;53.00;;;;;;4950725;28;20527;-69
2022/05/03 13:08:17;;;;;;;4.13;3.83;;;19.10;55.00;;;;;;4950220;28;20456;-70
2022/05/03 13:10:44;;;;;;;6.20;5.10;;;18.70;56.20;;;;;;4951210;28;20467;-70
2022/05/03 13:13:10;;;;;;;6.40;5.13;;;18.10;66.40;;;;;;4951673;28;20795;-70
2022/05/03 13:15:37;;;;;;;6.07;5.67;;;17.50;79.60;;;;;;4952722;28;20479;-68
2022/05/03 13:18:03;;;;;;;8.53;5.93;;;17.00;96.20;;;;;;4950182;28;20970;-68
2022/05/03 13:20:28;;;;;;;7.40;6.80;;;16.70;99.90;;;;;;4950549;28;20463;-71
2022/05/03 13:22:55;;;;;;;9.03;6.47;;;16.40;99.90;;;;;;4950873;28;20204;-70
2022/05/03 13:25:21;;;;;;;7.97;6.60;;;16.00;99.90;;;;;;4952506;28;20177;-70
2022/05/03 13:27:48;;;;;;;8.30;6.90;;;15.20;99.90;;;;;;4951152;28;20472;-71
2022/05/03 13:30:14;;;;;;;7.50;5.43;;;14.30;99.90;;;;;;4947879;28;20448;-70